Time;durP1;ratioP1;P1;durP2;ratioP2;P2;SDS_P1;SDS_P2;PMS_P1;PMS_P2;Temp;Humidity;BMP_temperature;BMP_pressure;BME280_temperature;BME280_humidity;BME280_pressure;Samples;Min_cycle;Max_cycle;Signal;HPM_P1;HPM_P2
2021/07/19 00:01:37;;;;;;;14.98;6.32;;;22.90;93.90;;;;;;4964592;28;20135;-90
2021/07/19 00:04:07;;;;;;;9.90;5.32;;;22.80;94.00;;;;;;4951792;28;20051;-90
2021/07/19 00:06:41;;;;;;;11.60;4.75;;;22.90;94.00;;;;;;4985956;28;20061;-90
2021/07/19 00:09:26;;;;;;;13.88;6.22;;;22.70;93.90;;;;;;5003426;28;20055;-90
2021/07/19 00:12:15;;;;;;;11.60;6.40;;;22.60;93.90;;;;;;4984928;28;20046;-91
2021/07/19 00:14:51;;;;;;;14.05;6.25;;;22.60;93.60;;;;;;5001986;28;20502;-90
2021/07/19 00:17:29;;;;;;;11.63;5.32;;;22.60;93.60;;;;;;5001119;28;20054;-90
2021/07/19 00:19:59;;;;;;;11.50;4.72;;;22.50;93.30;;;;;;4986138;28;20065;-91
2021/07/19 00:22:29;;;;;;;15.47;5.50;;;23.40;93.60;;;;;;4981877;28;20053;-90
2021/07/19 00:25:16;;;;;;;12.15;5.57;;;22.50;93.30;;;;;;4962291;28;20047;-91
2021/07/19 00:27:48;;;;;;;12.98;5.38;;;21.50;92.90;;;;;;4939265;28;20080;-90
2021/07/19 00:30:20;;;;;;;13.48;5.57;;;22.60;93.20;;;;;;4950681;29;20061;-90
2021/07/19 00:33:06;;;;;;;10.85;5.72;;;22.50;93.00;;;;;;4967104;28;20066;-90
2021/07/19 00:35:50;;;;;;;11.60;5.55;;;22.50;93.20;;;;;;4953613;28;20057;-90
2021/07/19 00:38:51;;;;;;;14.15;7.25;;;22.40;93.00;;;;;;4968427;28;20055;-90
2021/07/19 00:41:29;;;;;;;8.75;4.88;;;22.40;93.00;;;;;;4937704;28;20059;-90
2021/07/19 00:44:13;;;;;;;11.65;5.75;;;22.40;93.20;;;;;;4953196;28;20046;-90
2021/07/19 00:46:56;;;;;;;12.52;6.20;;;22.40;93.20;;;;;;4968571;28;20062;-90
2021/07/19 00:49:31;;;;;;;9.57;5.18;;;22.30;93.20;;;;;;4943628;28;20051;-91
2021/07/19 00:52:04;;;;;;;9.68;5.20;;;22.30;93.20;;;;;;4935951;28;20042;-90
2021/07/19 00:54:38;;;;;;;11.77;4.93;;;22.30;93.30;;;;;;4951724;28;20051;-90
2021/07/19 00:57:07;;;;;;;8.45;4.65;;;22.20;93.30;;;;;;4944543;28;20046;-90
2021/07/19 00:59:47;;;;;;;10.23;4.60;;;21.20;93.00;;;;;;4949655;28;20054;-90
2021/07/19 01:02:37;;;;;;;10.88;5.18;;;22.20;93.50;;;;;;4950069;28;20059;-90
2021/07/19 01:05:11;;;;;;;16.13;4.70;;;22.10;93.40;;;;;;4971518;28;20047;-90
2021/07/19 01:07:45;;;;;;;9.20;5.00;;;22.10;93.50;;;;;;4966190;28;20050;-90
2021/07/19 01:10:17;;;;;;;10.18;5.03;;;22.00;93.60;;;;;;4935079;28;20066;-91
2021/07/19 01:13:01;;;;;;;10.77;4.80;;;21.90;93.60;;;;;;4980632;28;20069;-90
2021/07/19 01:15:38;;;;;;;12.90;6.28;;;21.80;93.80;;;;;;4937358;28;20055;-90
2021/07/19 01:18:13;;;;;;;9.82;5.13;;;21.80;94.00;;;;;;4955099;28;20055;-89
2021/07/19 01:21:08;;;;;;;8.30;4.53;;;21.70;94.30;;;;;;4935831;29;20058;-92
2021/07/19 01:23:44;;;;;;;8.75;4.63;;;21.70;94.10;;;;;;4949397;28;20055;-90
2021/07/19 01:26:54;;;;;;;10.25;5.75;;;21.60;94.20;;;;;;4971023;28;20059;-91
2021/07/19 01:29:30;;;;;;;11.15;5.57;;;21.70;94.50;;;;;;4971854;28;20061;-90
2021/07/19 01:32:05;;;;;;;11.07;4.80;;;21.60;94.30;;;;;;4959431;28;20053;-90
2021/07/19 01:34:38;;;;;;;13.43;5.38;;;21.60;94.50;;;;;;4973806;28;20061;-91
2021/07/19 01:37:17;;;;;;;;;;;21.50;94.40;;;;;;4974582;28;20051;-92
2021/07/19 01:40:11;;;;;;;12.95;5.30;;;21.50;94.80;;;;;;4969171;29;19926;-90
2021/07/19 01:42:45;;;;;;;7.90;5.13;;;21.50;94.50;;;;;;4950885;29;20059;-90
2021/07/19 01:45:30;;;;;;;12.02;5.43;;;21.40;94.40;;;;;;4950267;29;20047;-91
2021/07/19 01:48:19;;;;;;;10.30;5.45;;;21.40;94.70;;;;;;4981735;28;20062;-90
2021/07/19 01:50:51;;;;;;;14.07;5.68;;;21.20;94.70;;;;;;4952837;28;20046;-92
2021/07/19 01:53:52;;;;;;;13.15;6.13;;;21.20;94.90;;;;;;4968960;28;20070;-89
2021/07/19 01:56:26;;;;;;;14.55;5.45;;;21.10;95.00;;;;;;4983412;28;20051;-90
2021/07/19 01:58:59;;;;;;;9.15;5.03;;;21.00;95.00;;;;;;4968134;28;20051;-89
2021/07/19 02:01:35;;;;;;;10.57;5.35;;;21.00;94.90;;;;;;4951176;28;20062;-89
2021/07/19 02:04:05;;;;;;;8.05;4.88;;;21.00;95.00;;;;;;4980908;28;20038;-90
2021/07/19 02:06:34;;;;;;;11.27;4.97;;;20.90;95.00;;;;;;4985993;28;20065;-89
2021/07/19 02:09:09;;;;;;;15.48;7.45;;;20.90;95.00;;;;;;4981683;28;20061;-90
2021/07/19 02:12:12;;;;;;;9.75;4.93;;;20.90;94.90;;;;;;4929046;29;20044;-90
2021/07/19 02:14:49;;;;;;;12.35;5.10;;;20.90;94.90;;;;;;4922069;28;20051;-90
2021/07/19 02:17:36;;;;;;;11.23;5.40;;;20.80;95.00;;;;;;4983400;28;20062;-91
2021/07/19 02:20:11;;;;;;;13.07;5.93;;;20.70;95.20;;;;;;4970483;28;20066;-90
2021/07/19 02:22:41;;;;;;;13.30;5.93;;;20.60;95.50;;;;;;4981407;28;20060;-90
2021/07/19 02:25:32;;;;;;;;;;;20.60;95.40;;;;;;5010168;28;20048;-90
2021/07/19 02:28:02;;;;;;;10.48;5.75;;;20.60;96.00;;;;;;4963666;28;20090;-90
2021/07/19 02:30:31;;;;;;;10.57;5.13;;;20.60;95.30;;;;;;4989831;28;20043;-90
2021/07/19 02:33:05;;;;;;;12.80;5.95;;;20.60;95.70;;;;;;5004612;28;20061;-90
2021/07/19 02:35:41;;;;;;;13.95;5.68;;;20.60;95.40;;;;;;4987809;28;20053;-89
2021/07/19 02:38:13;;;;;;;11.07;4.88;;;20.60;95.50;;;;;;4954776;28;20050;-90
2021/07/19 02:41:05;;;;;;;10.00;4.65;;;20.50;95.50;;;;;;4984593;28;20054;-90
2021/07/19 02:43:35;;;;;;;12.25;5.38;;;20.50;95.50;;;;;;4980419;28;20046;-90
2021/07/19 02:46:06;;;;;;;9.35;4.68;;;20.50;95.70;;;;;;5006466;28;20046;-91
2021/07/19 02:48:48;;;;;;;9.23;5.25;;;20.40;96.00;;;;;;4990236;28;20054;-91
2021/07/19 02:51:24;;;;;;;10.07;5.97;;;20.40;95.80;;;;;;4964722;28;20050;-91
2021/07/19 02:54:12;;;;;;;9.10;4.90;;;20.40;95.80;;;;;;4969779;28;20486;-89
2021/07/19 02:56:44;;;;;;;;;;;20.30;96.00;;;;;;4970035;28;20046;-90
2021/07/19 02:59:20;;;;;;;8.77;4.75;;;20.20;96.30;;;;;;4971003;28;19925;-90
2021/07/19 03:01:56;;;;;;;11.38;5.35;;;20.20;95.90;;;;;;4984668;28;20410;-90
2021/07/19 03:04:31;;;;;;;8.73;4.95;;;20.10;96.20;;;;;;4971214;28;20061;-90
2021/07/19 03:07:06;;;;;;;11.85;4.75;;;20.10;96.30;;;;;;4986920;28;20057;-90
2021/07/19 03:09:40;;;;;;;13.57;6.75;;;20.20;96.20;;;;;;4969963;28;20055;-90
2021/07/19 03:12:11;;;;;;;9.57;4.70;;;20.20;96.20;;;;;;4986181;28;20414;-90
2021/07/19 03:14:42;;;;;;;12.52;4.80;;;20.30;96.10;;;;;;4985933;28;20046;-89
2021/07/19 03:17:29;;;;;;;10.90;5.05;;;20.30;96.10;;;;;;4972999;28;20057;-90
2021/07/19 03:20:18;;;;;;;10.77;5.90;;;20.40;96.00;;;;;;4989980;28;20058;-90
2021/07/19 03:22:52;;;;;;;10.35;5.28;;;20.40;96.00;;;;;;4971310;28;20063;-90
2021/07/19 03:25:32;;;;;;;;;;;20.40;96.00;;;;;;4960520;28;20051;-90
2021/07/19 03:28:06;;;;;;;11.73;5.65;;;20.30;96.40;;;;;;4984884;28;19926;-89
2021/07/19 03:30:40;;;;;;;10.52;4.78;;;20.30;96.00;;;;;;5005068;28;20057;-89
2021/07/19 03:33:41;;;;;;;14.52;5.30;;;20.30;96.20;;;;;;4988905;28;20050;-91
2021/07/19 03:36:13;;;;;;;8.48;4.20;;;20.20;96.20;;;;;;4956801;28;20047;-89
2021/07/19 03:38:44;;;;;;;11.23;4.23;;;20.20;96.30;;;;;;4986702;28;20051;-89
2021/07/19 03:41:31;;;;;;;8.65;4.72;;;20.20;96.40;;;;;;4972600;29;20296;-89
2021/07/19 03:44:13;;;;;;;8.43;4.82;;;18.90;96.20;;;;;;4990227;28;20512;-90
2021/07/19 03:47:11;;;;;;;8.70;5.00;;;20.00;96.60;;;;;;4961482;28;20489;-90
2021/07/19 03:49:47;;;;;;;8.73;4.50;;;20.10;96.70;;;;;;4992355;28;20061;-89
2021/07/19 03:52:21;;;;;;;12.68;6.38;;;20.00;96.70;;;;;;4958765;28;20051;-89
2021/07/19 03:54:54;;;;;;;9.30;5.10;;;20.00;96.80;;;;;;4953325;29;20055;-89
2021/07/19 03:57:39;;;;;;;9.68;4.50;;;20.00;96.90;;;;;;4986313;28;20069;-89
2021/07/19 04:00:20;;;;;;;11.73;5.22;;;20.20;96.90;;;;;;4955887;29;20039;-91
2021/07/19 04:03:21;;;;;;;15.82;5.65;;;20.10;97.00;;;;;;4974796;28;20051;-91
2021/07/19 04:06:00;;;;;;;9.65;4.25;;;20.00;97.00;;;;;;4991431;28;20130;-89
2021/07/19 04:08:51;;;;;;;9.07;5.32;;;20.00;97.00;;;;;;4993703;28;20057;-90
2021/07/19 04:11:29;;;;;;;11.82;5.82;;;20.00;96.90;;;;;;4977004;28;20058;-90
2021/07/19 04:14:26;;;;;;;10.18;5.40;;;20.10;97.10;;;;;;5007916;28;20061;-90
2021/07/19 04:17:13;;;;;;;8.32;4.90;;;20.00;97.00;;;;;;4982727;28;20046;-89
2021/07/19 04:19:59;;;;;;;12.40;5.82;;;20.00;97.20;;;;;;4979625;28;20043;-90
2021/07/19 04:22:59;;;;;;;20.73;5.82;;;18.60;97.00;;;;;;4980423;28;20055;-91
2021/07/19 04:25:49;;;;;;;11.73;5.57;;;20.00;97.50;;;;;;4999333;28;20038;-90
2021/07/19 04:28:23;;;;;;;11.23;5.32;;;19.90;97.50;;;;;;4983633;28;20047;-90
2021/07/19 04:31:16;;;;;;;14.07;6.78;;;19.90;97.50;;;;;;4982179;28;20041;-90
2021/07/19 04:34:04;;;;;;;13.35;5.50;;;19.80;97.70;;;;;;4981115;28;20055;-90
2021/07/19 04:37:03;;;;;;;8.25;4.55;;;19.70;97.80;;;;;;5003320;28;20051;-89
2021/07/19 04:39:52;;;;;;;11.18;6.40;;;19.70;98.00;;;;;;4974948;28;20087;-89
2021/07/19 04:42:27;;;;;;;10.45;5.03;;;18.40;97.90;;;;;;4976058;28;20053;-90
2021/07/19 04:45:00;;;;;;;9.93;4.88;;;19.70;98.30;;;;;;4955692;29;20053;-90
2021/07/19 04:47:48;;;;;;;10.05;5.85;;;19.70;98.30;;;;;;4973681;28;20063;-89
2021/07/19 04:50:34;;;;;;;10.13;5.97;;;19.70;98.20;;;;;;4991102;28;20418;-90
2021/07/19 04:53:21;;;;;;;10.40;5.13;;;19.90;98.50;;;;;;5007870;28;20058;-89
2021/07/19 04:55:57;;;;;;;10.18;5.22;;;19.80;98.20;;;;;;4958254;29;20051;-90
2021/07/19 04:58:30;;;;;;;11.52;6.10;;;19.80;98.20;;;;;;4975004;28;20057;-89
2021/07/19 05:01:45;;;;;;;10.60;4.68;;;19.80;98.30;;;;;;4973997;28;20043;-89
2021/07/19 05:04:28;;;;;;;11.27;5.43;;;19.90;98.30;;;;;;4943490;29;20039;-89
2021/07/19 05:07:18;;;;;;;12.43;5.45;;;20.00;98.30;;;;;;4964776;29;20059;-89
2021/07/19 05:10:09;;;;;;;10.13;5.28;;;20.00;98.40;;;;;;4971116;29;20055;-90
2021/07/19 05:12:51;;;;;;;10.63;4.53;;;20.10;98.30;;;;;;4972635;29;20058;-89
2021/07/19 05:15:28;;;;;;;9.27;4.82;;;20.10;98.30;;;;;;4980557;28;20051;-89
2021/07/19 05:18:02;;;;;;;9.93;4.60;;;20.10;98.30;;;;;;4972948;28;20065;-89
2021/07/19 05:20:37;;;;;;;10.25;4.45;;;20.10;98.40;;;;;;4986758;28;20055;-89
2021/07/19 05:23:08;;;;;;;10.15;4.47;;;20.20;98.50;;;;;;4960957;28;20055;-91
2021/07/19 05:25:50;;;;;;;14.15;5.38;;;20.20;98.90;;;;;;4971012;28;20051;-89
2021/07/19 05:28:36;;;;;;;19.38;5.75;;;20.20;98.60;;;;;;4993626;28;20414;-89
2021/07/19 05:31:36;;;;;;;18.15;5.63;;;20.30;98.60;;;;;;4986690;28;20069;-89
2021/07/19 05:34:24;;;;;;;8.90;5.03;;;20.40;98.50;;;;;;4977098;28;20066;-89
2021/07/19 05:37:01;;;;;;;15.73;4.97;;;20.50;98.50;;;;;;4956046;28;20059;-91
2021/07/19 05:39:50;;;;;;;9.20;5.28;;;20.50;98.70;;;;;;4973770;28;20061;-88
2021/07/19 05:43:18;;;;;;;13.23;5.72;;;20.60;98.50;;;;;;4972659;28;20073;-90
2021/07/19 05:46:09;;;;;;;11.98;5.40;;;21.40;98.60;;;;;;4956856;29;20407;-90
2021/07/19 05:48:59;;;;;;;15.35;6.18;;;20.70;98.70;;;;;;4976634;28;20045;-89
2021/07/19 05:52:09;;;;;;;11.38;5.60;;;20.70;98.50;;;;;;4984498;28;20054;-89
